Finikia — YKRO — position and weather

sailwx.info

Track history (hours):
 
Tides and Currents Weather Stations Pressure Air Temp Water Temp Dewpoint Dewpoint Depression Visibility Wind Speed Wind Dir Waves Ship Positions

Finikia

Last reported at 2017-May-02 20:09 UTC. Time now 2017-May-27 06:15 UTC.
Position N 40°59' E 028°60'.
Warning: this ship's position is 24 days out of date.

Length 138 m; draft 6 m.

Type: Cargo ship. MMSI: 468395000.

Date/timePositionNaut miles runAvg speedWind from/ knotsBaromVisibWave heightAir tempDewpointWater temp
2017-May-02 20:09N 40°59' E 028°60'2 6.0
2017-May-02 19:49N 40°57' E 028°59'2 6.1
2017-May-02 19:25N 40°55' E 028°57'3 0.4
2017-May-02 12:11N 40°58' E 028°55'0 0.0
2017-May-02 11:59N 40°58' E 028°55'0 0.0
2017-May-01 12:37N 40°58' E 028°55'3 2.7
2017-May-01 11:37N 40°55' E 028°57'1 7.4
2017-May-01 11:27N 40°54' E 028°56'4 9.0
2017-May-01 11:00N 40°52' E 028°51'238 8.0
2017-Apr-30 05:16N 37°38' E 025°53'311.5
2017-Apr-30 05:00N 37°35' E 025°53'611.5
2017-Apr-30 04:30N 37°29' E 025°53'  
2017-Apr-27 10:27N 35°31' E 035°46'0 0.0
2017-Apr-27 09:57N 35°31' E 035°46'0 0.0
2017-Apr-27 09:30N 35°31' E 035°46'0 0.0
2017-Apr-27 09:00N 35°31' E 035°46'0 0.0
2017-Apr-27 08:30N 35°31' E 035°46'0 0.0
2017-Apr-26 01:12N 35°31' E 035°46'0 0.0
2017-Apr-26 00:51N 35°31' E 035°46'0 0.0
2017-Apr-26 00:30N 35°31' E 035°46'  
2017-Apr-22 22:57N 35°31' E 035°46'  
Track history (hours):
 
Tides and Currents Weather Stations Pressure Air Temp Water Temp Dewpoint Dewpoint Depression Visibility Wind Speed Wind Dir Waves Ship Positions

Finikia

Last reported at 2017-May-02 20:09 UTC. Time now 2017-May-27 06:15 UTC.
Position N 40°59' E 028°60'.
Warning: this ship's position is 24 days out of date.

Length 138 m; draft 6 m.

Type: Cargo ship. MMSI: 468395000.

Date/timePositionNaut miles runAvg speedWind from/ knotsBaromVisibWave heightAir tempDewpointWater temp
2017-May-02 20:09N 40°59' E 028°60'2 6.0
2017-May-02 19:49N 40°57' E 028°59'2 6.1
2017-May-02 19:25N 40°55' E 028°57'3 0.4
2017-May-02 12:11N 40°58' E 028°55'0 0.0
2017-May-02 11:59N 40°58' E 028°55'0 0.0
2017-May-01 12:37N 40°58' E 028°55'3 2.7
2017-May-01 11:37N 40°55' E 028°57'1 7.4
2017-May-01 11:27N 40°54' E 028°56'4 9.0
2017-May-01 11:00N 40°52' E 028°51'238 8.0
2017-Apr-30 05:16N 37°38' E 025°53'311.5
2017-Apr-30 05:00N 37°35' E 025°53'611.5
2017-Apr-30 04:30N 37°29' E 025°53'  
2017-Apr-27 10:27N 35°31' E 035°46'0 0.0
2017-Apr-27 09:57N 35°31' E 035°46'0 0.0
2017-Apr-27 09:30N 35°31' E 035°46'0 0.0
2017-Apr-27 09:00N 35°31' E 035°46'0 0.0
2017-Apr-27 08:30N 35°31' E 035°46'0 0.0
2017-Apr-26 01:12N 35°31' E 035°46'0 0.0
2017-Apr-26 00:51N 35°31' E 035°46'0 0.0
2017-Apr-26 00:30N 35°31' E 035°46'  
2017-Apr-22 22:57N 35°31' E 035°46'  

Dump ship's entire track history